This is the latest recevied weather packets stored in our database for station/object OZ7MKS. If no packets are shown the sender has not sent any weather packets the latest 10 day(s).
| Time | Temp. | Humidity | Pressure | Rain* | Wind** | Luminosity | Snow |
|---|---|---|---|---|---|---|---|
| 1777653904 | 22.22° C | 47% | 1023.6 hPa | 0 mm | - | - | - |
| 1777650904 | 22.78° C | 41% | 1024.2 hPa | 0 mm | - | - | - |
| 1777647904 | 23.33° C | 42% | 1024.7 hPa | 0 mm | - | - | - |
| 1777647304 | 23.33° C | 42% | 1024.7 hPa | 0 mm | - | - | - |
| 1777645504 | 23.33° C | 48% | 1025.1 hPa | 0 mm | - | - | - |
| 1777642204 | 23.33° C | 47% | 1025.8 hPa | 0 mm | - | - | - |
| 1777640104 | 22.22° C | 50% | 1026.2 hPa | 0 mm | - | - | - |
| 1777637104 | 22.22° C | 48% | 1026.8 hPa | 0 mm | - | - | - |
| 1777632903 | 20.56° C | 54% | 1027.4 hPa | 0 mm | - | - | - |
| 1777630804 | 20.56° C | 53% | 1027.6 hPa | 0 mm | - | - | - |
| 1777627804 | 19.44° C | 54% | 1028 hPa | 0 mm | - | - | - |
| 1777626304 | 18.89° C | 58% | 1028.1 hPa | 0 mm | - | - | - |
| 1777623604 | 17.22° C | 61% | 1028.4 hPa | 0 mm | - | - | - |
| 1777623004 | 17.22° C | 62% | 1028.3 hPa | 0 mm | - | - | - |
| 1777621804 | 16.11° C | 63% | 1028.4 hPa | 0 mm | - | - | - |
| 1777621203 | 15.56° C | 66% | 1028.5 hPa | 0 mm | - | - | - |
| 1777620904 | 15.56° C | 67% | 1028.5 hPa | 0 mm | - | - | - |
| 1777618204 | 11.67° C | 75% | 1028.6 hPa | 0 mm | - | - | - |
| 1777617304 | 10.56° C | 76% | 1028.6 hPa | 0 mm | - | - | - |
| 1777617005 | 10° C | 76% | 1028.7 hPa | 0 mm | - | - | - |
| 1777614906 | 7.22° C | 83% | 1028.8 hPa | 0 mm | - | - | - |
| 1777614604 | 6.67° C | 84% | 1028.8 hPa | 0 mm | - | - | - |
| 1777614004 | 6.11° C | 86% | 1028.8 hPa | 0 mm | - | - | - |
| 1777613704 | 6.11° C | 86% | 1028.8 hPa | 0 mm | - | - | - |
| 1777612204 | 5° C | 91% | 1028.8 hPa | 0 mm | - | - | - |
* Rain latest hour (hover to see other rain measurements)
** Current wind speed in m/s (hover to see current wind gust speed)